Time;durP1;ratioP1;P1;durP2;ratioP2;P2;SDS_P1;SDS_P2;PMS_P1;PMS_P2;Temp;Humidity;BMP_temperature;BMP_pressure;BME280_temperature;BME280_humidity;BME280_pressure;Samples;Min_cycle;Max_cycle;Signal;HPM_P1;HPM_P2
2023/07/27 00:01:06;;;;;;;6.72;3.10;;;;;;;21.76;62.82;98466.69;6273679;22;20068;-96
2023/07/27 00:03:32;;;;;;;5.28;3.55;;;;;;;21.87;63.21;98493.50;6275848;22;20011;-96
2023/07/27 00:06:05;;;;;;;5.47;3.67;;;;;;;21.79;62.87;98496.13;6299250;22;19998;-96
2023/07/27 00:08:34;;;;;;;4.47;3.40;;;;;;;21.69;63.56;98469.34;6274403;22;20011;-96
2023/07/27 00:11:08;;;;;;;6.55;3.65;;;;;;;21.67;63.50;98493.56;6327603;22;20006;-96
2023/07/27 00:13:42;;;;;;;6.50;3.60;;;;;;;21.72;63.73;98500.69;6302670;22;20007;-96
2023/07/27 00:16:13;;;;;;;6.43;3.50;;;;;;;21.69;63.62;98512.38;6302136;22;20007;-96
2023/07/27 00:18:44;;;;;;;4.80;3.80;;;;;;;21.68;63.40;98505.31;6303335;22;20003;-96
2023/07/27 00:21:16;;;;;;;3.85;3.35;;;;;;;21.63;63.79;98484.47;6327432;22;20022;-96
2023/07/27 00:23:53;;;;;;;5.22;3.63;;;;;;;21.79;62.26;98495.34;6330245;22;20058;-96
2023/07/27 00:26:34;;;;;;;4.60;3.60;;;;;;;21.72;61.13;98485.03;6331029;22;20029;-96
2023/07/27 00:29:08;;;;;;;5.82;3.53;;;;;;;21.48;61.97;98482.63;6330144;22;20003;-96
2023/07/27 00:31:35;;;;;;;5.22;3.30;;;;;;;21.72;61.93;98528.88;6327389;22;20010;-96
2023/07/27 00:34:10;;;;;;;8.07;3.78;;;;;;;21.54;62.92;98517.59;6276717;22;19999;-96
2023/07/27 00:36:46;;;;;;;4.22;3.30;;;;;;;21.37;62.46;98493.34;6327685;22;19993;-96
2023/07/27 00:39:19;;;;;;;4.20;2.72;;;;;;;21.45;61.10;98473.19;6328064;22;20004;-96
2023/07/27 00:41:53;;;;;;;5.72;3.20;;;;;;;21.67;60.61;98511.97;6303642;22;19999;-96
2023/07/27 00:44:32;;;;;;;4.13;2.90;;;;;;;21.46;60.68;98484.94;6328481;22;20000;-96
2023/07/27 00:47:02;;;;;;;4.85;2.50;;;;;;;21.40;60.26;98496.16;6305607;22;20011;-96
2023/07/27 00:49:44;;;;;;;4.35;3.05;;;;;;;21.26;63.26;98522.47;6276983;22;20003;-96
2023/07/27 00:52:10;;;;;;;4.75;2.70;;;;;;;21.32;61.61;98519.09;6308695;22;19999;-85
2023/07/27 00:54:35;;;;;;;5.40;3.00;;;;;;;21.29;63.09;98500.66;6257630;22;20034;-86
2023/07/27 00:57:01;;;;;;;4.82;2.95;;;;;;;21.30;61.55;98509.66;6281980;22;19999;-85
2023/07/27 00:59:27;;;;;;;4.00;3.00;;;;;;;21.26;61.93;98525.22;6283963;22;20027;-86
2023/07/27 01:01:53;;;;;;;3.75;2.90;;;;;;;21.19;64.12;98515.72;6282675;22;20031;-85
2023/07/27 01:04:19;;;;;;;4.20;2.85;;;;;;;21.23;63.61;98509.50;6257526;22;19995;-86
2023/07/27 01:06:44;;;;;;;7.70;2.90;;;;;;;21.17;64.26;98509.81;6282703;22;20444;-85
2023/07/27 01:09:10;;;;;;;6.60;3.20;;;;;;;21.07;63.27;98504.13;6283073;22;19995;-85
2023/07/27 01:12:23;;;;;;;3.63;3.00;;;;;;;21.04;64.08;98521.25;6256325;22;19999;-86
2023/07/27 01:14:57;;;;;;;7.18;3.13;;;;;;;21.06;63.12;98527.94;6203210;23;20005;-85
2023/07/27 01:17:36;;;;;;;6.82;2.85;;;;;;;21.18;62.40;98527.81;6290270;22;20068;-86
2023/07/27 01:20:04;;;;;;;4.20;2.50;;;;;;;21.29;62.60;98546.38;6258175;22;20015;-86
2023/07/27 01:22:30;;;;;;;5.35;2.95;;;;;;;21.21;62.50;98545.47;6309673;22;19999;-85
2023/07/27 01:25:01;;;;;;;8.02;3.50;;;;;;;20.98;63.28;98528.97;6309538;22;20006;-86
2023/07/27 01:27:34;;;;;;;3.13;2.30;;;;;;;20.78;62.91;98514.44;6307770;22;20007;-85
2023/07/27 01:30:16;;;;;;;4.03;2.88;;;;;;;20.93;63.13;98531.97;6259722;22;20003;-85
2023/07/27 01:32:41;;;;;;;3.50;2.53;;;;;;;20.81;63.25;98513.72;6285765;22;20439;-85
2023/07/27 01:35:10;;;;;;;3.80;2.80;;;;;;;20.79;62.88;98525.03;6283809;22;20000;-85
2023/07/27 01:37:36;;;;;;;3.65;2.53;;;;;;;20.63;62.01;98507.88;6258015;22;20011;-85
2023/07/27 01:40:03;;;;;;;3.45;2.88;;;;;;;20.85;63.62;98528.28;6259101;22;20014;-85
2023/07/27 01:42:29;;;;;;;3.78;2.53;;;;;;;20.77;61.85;98516.41;6310657;22;20002;-85
2023/07/27 01:44:57;;;;;;;3.53;2.65;;;;;;;20.75;62.64;98526.09;6285060;22;19999;-85
2023/07/27 01:47:23;;;;;;;4.40;2.38;;;;;;;20.77;62.26;98530.09;6258931;22;20055;-85
2023/07/27 01:49:48;;;;;;;3.15;2.40;;;;;;;20.74;61.60;98536.25;6259192;22;20060;-85
2023/07/27 01:52:14;;;;;;;4.15;2.63;;;;;;;20.83;61.34;98541.53;6283800;22;19995;-86
2023/07/27 01:54:39;;;;;;;3.35;2.40;;;;;;;20.82;61.01;98542.69;6258829;22;20003;-85
2023/07/27 01:57:05;;;;;;;3.58;2.10;;;;;;;20.55;61.23;98530.72;6259550;22;19999;-86
2023/07/27 01:59:30;;;;;;;3.25;2.40;;;;;;;20.70;61.81;98543.59;6285117;22;20006;-85
2023/07/27 02:01:56;;;;;;;3.25;2.35;;;;;;;20.50;61.30;98530.97;6284360;22;20027;-86
2023/07/27 02:04:22;;;;;;;2.65;2.20;;;;;;;20.66;62.07;98550.91;6259062;22;20417;-85
2023/07/27 02:06:50;;;;;;;6.03;2.33;;;;;;;20.84;60.84;98569.69;6258425;22;20003;-85
2023/07/27 02:09:16;;;;;;;3.20;2.00;;;;;;;20.83;60.65;98582.56;6283992;22;20035;-85
2023/07/27 02:11:42;;;;;;;3.55;2.10;;;;;;;20.44;61.47;98546.88;6284711;22;20002;-87
2023/07/27 02:14:45;;;;;;;3.47;2.22;;;;;;;20.61;60.60;98556.69;6258644;22;20007;-86
2023/07/27 02:17:22;;;;;;;2.85;2.10;;;;;;;20.65;60.39;98564.94;6162028;23;20400;-86
2023/07/27 02:19:50;;;;;;;3.10;2.10;;;;;;;20.49;60.47;98560.25;6242141;22;20015;-86
2023/07/27 02:22:15;;;;;;;5.18;2.10;;;;;;;20.54;61.66;98572.88;6258700;22;20006;-86
2023/07/27 02:24:41;;;;;;;4.55;2.15;;;;;;;20.40;61.50;98554.19;6257702;22;20434;-85
2023/07/27 02:27:06;;;;;;;4.78;2.10;;;;;;;20.46;60.51;98549.25;6258494;22;20322;-84
2023/07/27 02:29:32;;;;;;;2.47;2.00;;;;;;;20.56;60.28;98565.09;6257938;22;20048;-85
2023/07/27 02:31:57;;;;;;;3.10;2.05;;;;;;;20.47;59.45;98573.50;6258201;22;20403;-85
2023/07/27 02:34:26;;;;;;;2.63;1.88;;;;;;;20.39;61.22;98594.41;6284362;22;20003;-85
2023/07/27 02:36:51;;;;;;;3.95;2.30;;;;;;;20.42;60.23;98597.56;6284200;22;20020;-84
2023/07/27 02:39:17;;;;;;;2.33;1.65;;;;;;;20.42;58.59;98581.97;6282609;22;20002;-85
2023/07/27 02:41:42;;;;;;;3.38;2.00;;;;;;;20.31;59.68;98575.44;6258971;22;20418;-85
2023/07/27 02:44:08;;;;;;;3.80;1.80;;;;;;;20.45;58.51;98608.59;6283934;22;19999;-85
2023/07/27 02:46:33;;;;;;;3.33;2.00;;;;;;;20.27;60.18;98588.22;6284660;22;20003;-85
2023/07/27 02:48:59;;;;;;;4.00;1.88;;;;;;;20.36;59.88;98603.31;6257865;22;20006;-85
2023/07/27 02:51:24;;;;;;;5.15;1.90;;;;;;;20.40;57.75;98606.16;6284179;22;20448;-85
2023/07/27 02:53:49;;;;;;;3.20;1.80;;;;;;;20.50;57.88;98605.63;6283485;22;20360;-86
2023/07/27 02:56:15;;;;;;;2.70;1.70;;;;;;;20.31;57.65;98600.84;6258132;22;20088;-85
2023/07/27 02:58:40;;;;;;;5.90;1.70;;;;;;;20.35;57.14;98612.66;6258493;22;20026;-86
2023/07/27 03:01:06;;;;;;;4.45;1.70;;;;;;;20.33;56.90;98605.97;6258846;22;19999;-87
2023/07/27 03:03:32;;;;;;;2.47;1.73;;;;;;;20.24;57.22;98614.34;6258168;22;19995;-86
2023/07/27 03:06:02;;;;;;;4.28;1.98;;;;;;;20.16;57.76;98612.56;6259042;22;20064;-85
2023/07/27 03:08:28;;;;;;;2.28;1.63;;;;;;;20.20;57.25;98624.38;6257801;22;19999;-85
2023/07/27 03:10:53;;;;;;;4.47;1.65;;;;;;;20.29;57.25;98635.94;6283454;22;20007;-86
2023/07/27 03:13:19;;;;;;;1.55;1.42;;;;;;;20.35;55.99;98641.94;6283385;22;20057;-86
2023/07/27 03:15:45;;;;;;;2.17;1.60;;;;;;;20.27;56.28;98630.03;6258271;22;20006;-84
2023/07/27 03:18:10;;;;;;;3.25;1.35;;;;;;;20.14;56.43;98634.00;6259033;22;19999;-86
2023/07/27 03:20:42;;;;;;;2.17;1.52;;;;;;;20.32;55.45;98646.19;6283901;22;20007;-86
2023/07/27 03:23:08;;;;;;;2.67;1.50;;;;;;;20.03;55.99;98630.97;6258823;22;20009;-86
2023/07/27 03:25:34;;;;;;;2.65;1.38;;;;;;;20.24;56.13;98654.56;6257247;22;20094;-86
2023/07/27 03:28:04;;;;;;;2.67;1.88;;;;;;;20.17;55.20;98645.03;6284163;22;19999;-87
2023/07/27 03:30:29;;;;;;;5.05;1.60;;;;;;;20.20;55.58;98657.19;6258663;22;19995;-86
2023/07/27 03:32:55;;;;;;;5.45;1.42;;;;;;;20.34;55.09;98671.25;6259115;22;20026;-87
2023/07/27 03:35:20;;;;;;;3.72;1.85;;;;;;;20.25;56.39;98654.19;6284361;22;20003;-88
2023/07/27 03:37:46;;;;;;;2.63;1.50;;;;;;;20.36;55.46;98632.63;6259291;22;20015;-88
2023/07/27 03:40:11;;;;;;;2.42;1.48;;;;;;;20.52;55.42;98662.69;6258993;22;20418;-89
2023/07/27 03:42:37;;;;;;;2.95;1.48;;;;;;;20.50;54.89;98673.19;6258027;22;19995;-88
2023/07/27 03:45:06;;;;;;;2.35;1.50;;;;;;;20.44;55.48;98660.91;6259443;22;20026;-89
2023/07/27 03:47:34;;;;;;;4.10;1.50;;;;;;;20.53;54.85;98664.28;6258395;22;20078;-88
2023/07/27 03:50:00;;;;;;;3.08;1.25;;;;;;;20.42;53.88;98649.53;6259320;22;19999;-88
2023/07/27 03:52:26;;;;;;;2.25;1.38;;;;;;;20.47;54.11;98658.28;6284476;22;20006;-88
2023/07/27 03:54:51;;;;;;;4.32;1.52;;;;;;;20.39;53.71;98662.75;6258517;22;20005;-88
2023/07/27 03:57:17;;;;;;;3.95;1.75;;;;;;;20.55;54.19;98675.66;6258259;22;19996;-86
2023/07/27 03:59:42;;;;;;;5.03;1.40;;;;;;;20.49;53.81;98675.13;6258577;22;20445;-88
2023/07/27 04:02:08;;;;;;;3.00;1.30;;;;;;;20.54;52.71;98674.06;6258069;22;19999;-87
2023/07/27 04:04:33;;;;;;;2.22;1.38;;;;;;;20.80;53.26;98684.53;6260381;22;20342;-88
2023/07/27 04:06:59;;;;;;;2.67;1.42;;;;;;;20.89;52.83;98676.13;6258398;22;20433;-86
2023/07/27 04:09:24;;;;;;;2.35;1.50;;;;;;;20.89;52.74;98679.66;6285543;22;20001;-87
2023/07/27 04:11:50;;;;;;;2.85;1.33;;;;;;;20.74;53.35;98664.84;6257555;22;20068;-87
2023/07/27 04:14:16;;;;;;;8.18;1.80;;;;;;;20.59;52.96;98663.69;6283303;22;20064;-88
2023/07/27 04:16:41;;;;;;;3.85;1.40;;;;;;;20.78;52.55;98687.59;6259410;22;20101;-87
2023/07/27 04:19:07;;;;;;;4.80;2.47;;;;;;;20.68;52.34;98688.13;6258645;22;19983;-88
2023/07/27 04:21:33;;;;;;;5.32;3.00;;;;;;;20.83;53.08;98705.69;6285554;22;20011;-88
2023/07/27 04:23:58;;;;;;;3.60;1.92;;;;;;;20.81;52.98;98685.31;6257774;22;20337;-89
2023/07/27 04:26:27;;;;;;;3.25;1.20;;;;;;;20.84;52.50;98703.78;6257783;22;20322;-86
2023/07/27 04:28:52;;;;;;;4.95;1.50;;;;;;;20.95;51.99;98711.09;6283344;22;20037;-88
2023/07/27 04:31:18;;;;;;;4.50;1.80;;;;;;;20.79;52.23;98691.13;6284132;22;20430;-88
2023/07/27 04:33:44;;;;;;;6.80;2.22;;;;;;;20.72;53.76;98699.19;6259672;22;20003;-94
2023/07/27 04:36:15;;;;;;;3.05;1.30;;;;;;;20.82;51.51;98706.06;6287159;22;20413;-86
2023/07/27 04:38:40;;;;;;;3.63;1.40;;;;;;;20.76;52.59;98716.47;6286208;22;20022;-94
2023/07/27 04:41:06;;;;;;;1.77;1.10;;;;;;;20.89;52.21;98714.44;6260266;22;19995;-86
2023/07/27 04:43:32;;;;;;;3.72;1.90;;;;;;;21.06;51.48;98722.28;6258628;22;20060;-92
2023/07/27 04:45:57;;;;;;;4.35;2.20;;;;;;;20.99;51.35;98716.66;6257735;22;20319;-86
2023/07/27 04:48:23;;;;;;;4.55;2.45;;;;;;;21.03;51.33;98709.31;6283124;22;20003;-86
2023/07/27 04:50:48;;;;;;;2.05;1.48;;;;;;;21.06;51.36;98722.28;6257806;22;20003;-86
2023/07/27 04:53:14;;;;;;;5.03;1.85;;;;;;;21.06;51.60;98697.66;6258063;22;20010;-86
2023/07/27 04:55:39;;;;;;;3.63;1.83;;;;;;;21.23;50.25;98715.66;6259572;22;19991;-87
2023/07/27 04:58:05;;;;;;;2.58;1.05;;;;;;;21.24;49.75;98706.28;6260078;22;19999;-87
2023/07/27 05:00:36;;;;;;;4.60;1.40;;;;;;;21.29;51.05;98697.81;6259103;22;20422;-88
2023/07/27 05:03:02;;;;;;;1.67;1.23;;;;;;;21.18;50.54;98699.50;6259144;22;20007;-87
2023/07/27 05:05:27;;;;;;;6.57;1.70;;;;;;;21.15;50.61;98706.47;6260299;22;19995;-89
2023/07/27 05:07:53;;;;;;;2.95;1.90;;;;;;;21.29;50.17;98714.25;6260014;22;20003;-86
2023/07/27 05:10:18;;;;;;;4.60;2.60;;;;;;;21.24;49.39;98713.72;6258349;22;20006;-87
2023/07/27 05:12:51;;;;;;;6.72;1.92;;;;;;;21.15;51.12;98722.91;6284517;22;20421;-90
2023/07/27 05:15:26;;;;;;;2.28;1.00;;;;;;;21.22;49.01;98722.28;6289573;22;19991;-92
2023/07/27 05:17:52;;;;;;;2.95;1.20;;;;;;;21.06;49.57;98702.34;6260417;22;19999;-89
2023/07/27 05:20:20;;;;;;;1.50;1.05;;;;;;;21.26;48.83;98728.63;6258417;22;20007;-87
2023/07/27 05:22:46;;;;;;;3.42;1.90;;;;;;;21.39;49.98;98726.56;6285121;22;20025;-89
2023/07/27 05:25:13;;;;;;;1.23;0.95;;;;;;;21.21;47.96;98696.06;6260599;22;20003;-88
2023/07/27 05:27:39;;;;;;;4.13;1.50;;;;;;;21.24;48.86;98689.84;6285353;22;20007;-87
2023/07/27 05:30:05;;;;;;;2.90;1.20;;;;;;;21.31;48.83;98679.09;6259304;22;20003;-87
2023/07/27 05:32:58;;;;;;;2.17;0.98;;;;;;;21.49;47.38;98676.75;6262117;22;20009;-91
2023/07/27 05:35:26;;;;;;;2.28;1.30;;;;;;;21.61;48.19;98695.00;6310724;22;20349;-90
2023/07/27 05:38:01;;;;;;;3.35;2.53;;;;;;;21.70;46.58;98708.50;6261789;22;20119;-89
2023/07/27 05:40:27;;;;;;;2.30;1.50;;;;;;;21.72;47.95;98706.97;6264658;22;20003;-88
2023/07/27 05:42:52;;;;;;;3.25;1.20;;;;;;;21.79;47.05;98679.75;6261175;22;20034;-88
2023/07/27 05:45:18;;;;;;;1.67;1.15;;;;;;;22.00;47.58;98706.00;6258689;22;20326;-89
2023/07/27 05:47:53;;;;;;;6.05;1.40;;;;;;;21.89;47.17;98702.22;6259121;22;19999;-88
2023/07/27 05:50:27;;;;;;;4.38;1.25;;;;;;;22.10;47.25;98716.38;6263165;22;19994;-88
2023/07/27 05:52:53;;;;;;;2.60;1.30;;;;;;;22.30;46.52;98711.69;6261050;22;20033;-85
2023/07/27 05:55:21;;;;;;;3.13;1.05;;;;;;;22.39;45.68;98715.00;6256970;22;20094;-87
2023/07/27 06:01:00;;;;;;;1.42;0.85;;;;;;;22.39;44.45;98747.94;6234940;23;20474;-88
2023/07/27 06:03:26;;;;;;;1.70;1.17;;;;;;;22.21;45.27;98738.53;6223407;23;20000;-88
2023/07/27 06:05:52;;;;;;;5.38;2.55;;;;;;;22.14;46.99;98750.16;6221138;23;20008;-87
2023/07/27 06:08:29;;;;;;;3.60;1.52;;;;;;;22.12;45.50;98749.72;6223519;23;20074;-89
2023/07/27 06:11:06;;;;;;;3.55;1.67;;;;;;;21.90;47.50;98742.22;6197242;23;20384;-88
2023/07/27 06:13:32;;;;;;;4.05;1.40;;;;;;;21.89;46.72;98760.56;6221852;23;20000;-88
2023/07/27 06:16:00;;;;;;;1.90;1.10;;;;;;;21.75;46.30;98743.84;6198348;23;20031;-88
2023/07/27 06:18:39;;;;;;;;;;;;;;;;;;;;;
2023/07/27 06:21:10;;;;;;;1.30;1.10;;;;;;;21.44;46.45;98752.94;6251722;22;20035;-87
2023/07/27 06:23:35;;;;;;;1.05;0.95;;;;;;;21.25;46.16;98754.44;6199381;23;20319;-86
2023/07/27 06:26:01;;;;;;;3.28;1.55;;;;;;;20.96;46.81;98733.78;6257268;22;20003;-86
2023/07/27 06:28:29;;;;;;;1.95;1.00;;;;;;;21.14;47.04;98740.47;6285858;22;20003;-85
2023/07/27 06:31:21;;;;;;;2.28;1.00;;;;;;;21.24;46.80;98713.72;6284293;22;20003;-86
2023/07/27 06:33:58;;;;;;;3.67;1.08;;;;;;;21.23;46.15;98732.09;6281021;22;20677;-87
2023/07/27 06:37:07;;;;;;;2.65;1.00;;;;;;;21.22;45.29;98755.13;6288890;22;19999;-96
2023/07/27 06:39:51;;;;;;;1.92;0.80;;;;;;;20.86;45.87;98721.44;6295343;22;20022;-95
2023/07/27 06:42:23;;;;;;;3.95;1.10;;;;;;;20.71;46.82;98723.00;6328504;22;20020;-95
2023/07/27 06:44:51;;;;;;;2.35;1.15;;;;;;;20.87;47.18;98742.16;6296916;22;20010;-87
2023/07/27 06:47:16;;;;;;;1.63;0.90;;;;;;;21.03;45.55;98752.31;6287220;22;20090;-86
2023/07/27 06:49:42;;;;;;;1.02;0.90;;;;;;;20.93;45.79;98740.75;6260749;22;20444;-85
2023/07/27 06:52:09;;;;;;;1.38;0.90;;;;;;;20.78;45.71;98730.59;6285566;22;20003;-87
2023/07/27 06:54:39;;;;;;;1.85;0.90;;;;;;;20.83;45.73;98713.91;6234015;22;20675;-86
2023/07/27 06:57:10;;;;;;;0.90;0.80;;;;;;;21.00;45.89;98726.47;6286146;22;19999;-86
2023/07/27 06:59:38;;;;;;;0.73;0.73;;;;;;;21.14;44.71;98728.72;6260124;22;20346;-86
2023/07/27 07:02:07;;;;;;;2.78;1.13;;;;;;;21.22;45.26;98726.97;6287211;22;19995;-85
2023/07/27 07:04:33;;;;;;;37.75;28.02;;;;;;;21.39;43.33;98726.56;6197909;23;20435;-86
2023/07/27 07:06:58;;;;;;;0.98;0.88;;;;;;;21.53;43.72;98735.16;6224165;23;20062;-86
2023/07/27 07:09:26;;;;;;;18.60;12.05;;;;;;;21.71;43.79;98732.03;6199226;23;20004;-86
2023/07/27 07:11:55;;;;;;;2.75;1.48;;;;;;;22.15;42.49;98759.94;6173737;23;20093;-87
2023/07/27 07:14:41;;;;;;;2.65;0.90;;;;;;;22.24;41.76;98764.47;6198835;23;20003;-88
2023/07/27 07:17:07;;;;;;;1.42;0.88;;;;;;;22.70;41.72;98762.59;6200666;23;20093;-88
2023/07/27 07:19:42;;;;;;;2.28;1.00;;;;;;;22.77;40.96;98735.28;6199504;23;20000;-88
2023/07/27 07:22:16;;;;;;;1.27;0.88;;;;;;;23.20;40.52;98733.28;6198690;23;20006;-86
2023/07/27 07:24:44;;;;;;;0.85;0.80;;;;;;;23.34;39.76;98773.88;6223955;23;20004;-89
2023/07/27 07:27:12;;;;;;;1.83;1.00;;;;;;;23.26;40.01;98750.22;6183512;23;20027;-94
2023/07/27 07:29:40;;;;;;;1.27;0.90;;;;;;;23.44;40.12;98753.25;6179610;23;20000;-88
2023/07/27 07:32:09;;;;;;;1.00;0.80;;;;;;;23.23;39.77;98750.97;6198327;23;20203;-88
2023/07/27 07:34:37;;;;;;;4.22;1.20;;;;;;;23.24;40.51;98763.53;6186669;22;20065;-88
2023/07/27 07:37:05;;;;;;;1.85;1.00;;;;;;;23.21;38.91;98761.53;6266187;22;20345;-87
2023/07/27 07:39:33;;;;;;;1.00;0.80;;;;;;;23.40;39.45;98780.66;6261334;22;20144;-88
2023/07/27 07:42:00;;;;;;;1.30;0.80;;;;;;;23.33;39.18;98744.06;6259963;22;20017;-87
2023/07/27 07:44:26;;;;;;;0.88;0.80;;;;;;;23.64;38.66;98759.44;6311944;22;19999;-90
2023/07/27 07:46:53;;;;;;;4.82;2.63;;;;;;;23.47;39.14;98736.03;6264120;22;20025;-85
2023/07/27 07:49:22;;;;;;;3.40;1.60;;;;;;;23.62;38.03;98753.50;6265229;22;20023;-88
2023/07/27 07:51:48;;;;;;;2.85;1.15;;;;;;;23.33;38.80;98746.81;6266162;22;20011;-88
2023/07/27 07:54:13;;;;;;;1.73;1.00;;;;;;;23.33;39.39;98752.28;6286201;22;20026;-87
2023/07/27 07:56:42;;;;;;;1.17;0.85;;;;;;;23.19;38.83;98753.66;6260636;22;19994;-87
2023/07/27 07:59:34;;;;;;;1.33;1.00;;;;;;;23.21;39.60;98747.78;6295533;22;20005;-94
2023/07/27 08:02:02;;;;;;;8.13;1.10;;;;;;;23.38;39.27;98754.72;6261416;22;20007;-92
2023/07/27 08:04:59;;;;;;;5.97;1.58;;;;;;;23.39;39.05;98748.06;6276192;22;19990;-96
2023/07/27 08:07:26;;;;;;;1.10;0.70;;;;;;;23.38;38.11;98763.75;6326824;22;20022;-96
2023/07/27 08:09:52;;;;;;;2.25;1.00;;;;;;;23.40;38.97;98775.16;6233804;23;20055;-95
2023/07/27 08:12:30;;;;;;;1.15;0.70;;;;;;;23.54;37.42;98782.06;6188015;23;19996;-95
2023/07/27 08:14:57;;;;;;;2.30;0.80;;;;;;;23.32;38.59;98758.94;6217253;23;19992;-95
2023/07/27 08:17:34;;;;;;;1.05;0.80;;;;;;;23.42;38.20;98765.78;6211563;23;20004;-94
2023/07/27 08:26:19;;;;;;;1.08;0.80;;;;;;;23.48;38.57;98778.03;6332044;22;20037;-96
2023/07/27 08:34:05;;;;;;;1.20;0.70;;;;;;;23.18;38.50;98782.28;6220097;22;20066;-96
2023/07/27 08:42:19;;;;;;;1.83;0.85;;;;;;;23.42;38.72;98772.03;6211874;22;20023;-93
2023/07/27 08:44:52;;;;;;;2.13;0.98;;;;;;;23.55;38.41;98787.19;6294995;22;20059;-96
2023/07/27 08:47:29;;;;;;;2.10;1.10;;;;;;;23.56;38.03;98777.75;6333607;22;20007;-96
2023/07/27 08:50:44;;;;;;;;;;;;;;;;;;;;;
2023/07/27 08:53:23;;;;;;;0.90;0.70;;;;;;;23.21;38.17;98736.81;6369616;22;20010;-96
2023/07/27 08:55:53;;;;;;;2.55;0.80;;;;;;;23.51;38.31;98758.03;6331878;22;20049;-94
2023/07/27 08:58:36;;;;;;;3.58;1.27;;;;;;;23.60;38.19;98750.34;6328705;22;20003;-96
2023/07/27 09:01:01;;;;;;;1.35;0.60;;;;;;;23.22;39.21;98745.81;6283016;22;19998;-88
2023/07/27 09:03:27;;;;;;;1.02;0.80;;;;;;;23.18;39.11;98768.56;6265845;22;20085;-87
2023/07/27 09:06:14;;;;;;;1.25;1.10;;;;;;;23.09;39.46;98743.28;6264959;22;19998;-87
2023/07/27 09:08:43;;;;;;;1.77;0.77;;;;;;;23.13;39.51;98744.13;6268606;22;19990;-86
2023/07/27 09:11:13;;;;;;;0.95;0.80;;;;;;;23.30;38.98;98786.78;6268947;22;20027;-96
2023/07/27 09:13:50;;;;;;;2.05;1.00;;;;;;;22.98;39.98;98762.28;6303581;22;20003;-96
2023/07/27 09:16:46;;;;;;;1.38;0.98;;;;;;;23.24;40.48;98784.72;6302889;22;20010;-96
2023/07/27 09:19:25;;;;;;;1.27;0.80;;;;;;;23.30;39.44;98791.47;6284605;22;20007;-96
2023/07/27 09:21:57;;;;;;;1.40;0.95;;;;;;;23.19;40.18;98796.81;6245031;22;20004;-96
2023/07/27 09:24:43;;;;;;;1.42;0.90;;;;;;;23.05;40.28;98794.59;6221993;22;20000;-96
2023/07/27 09:27:14;;;;;;;1.08;0.80;;;;;;;22.70;40.68;98783.75;6244038;22;20079;-96
2023/07/27 09:29:41;;;;;;;3.65;1.25;;;;;;;22.52;41.68;98778.72;6236566;22;19999;-95
2023/07/27 09:34:45;;;;;;;1.40;1.00;;;;;;;22.61;40.43;98816.91;6358670;22;20019;-96
2023/07/27 09:37:19;;;;;;;3.55;1.25;;;;;;;22.55;41.17;98818.38;6280026;22;20002;-96
2023/07/27 09:39:52;;;;;;;2.30;1.10;;;;;;;22.56;41.03;98822.72;6264171;22;20043;-96
2023/07/27 09:42:39;;;;;;;5.35;1.17;;;;;;;22.45;40.79;98819.72;6273924;22;20011;-96
2023/07/27 09:51:47;;;;;;;2.60;1.00;;;;;;;22.14;41.07;98839.81;6252318;22;20018;-96
2023/07/27 09:59:54;;;;;;;2.22;1.30;;;;;;;21.78;42.56;98826.13;6386770;22;20023;-96
2023/07/27 10:02:25;;;;;;;8.00;3.67;;;;;;;21.87;43.59;98817.72;6307850;22;19998;-96
2023/07/27 10:07:46;;;;;;;3.05;1.30;;;;;;;22.25;42.05;98851.06;6293957;22;20050;-96
2023/07/27 10:10:53;;;;;;;2.53;1.00;;;;;;;22.29;42.04;98814.34;6219672;22;19996;-95
2023/07/27 10:13:28;;;;;;;1.00;0.90;;;;;;;22.50;41.93;98843.38;6151803;23;20068;-96
2023/07/27 10:16:24;;;;;;;2.97;1.35;;;;;;;22.36;41.88;98811.72;6252269;22;20030;-90
2023/07/27 10:18:52;;;;;;;2.47;1.40;;;;;;;22.47;43.21;98822.13;6243220;22;20003;-87
2023/07/27 10:21:35;;;;;;;1.75;1.10;;;;;;;22.52;42.16;98841.06;6203782;22;20359;-90
2023/07/27 10:29:28;;;;;;;3.22;1.80;;;;;;;22.26;43.30;98823.28;6311338;22;20019;-96
2023/07/27 10:32:01;;;;;;;;;;;;;;;22.43;43.49;98841.25;6268998;22;20014;-95
2023/07/27 10:40:56;;;;;;;2.13;1.20;;;;;;;22.31;43.75;98841.41;6323742;22;19916;-96
2023/07/27 10:44:07;;;;;;;2.85;1.58;;;;;;;22.47;44.92;98852.31;6248736;22;19995;-96
2023/07/27 10:46:56;;;;;;;154.70;74.82;;;;;;;22.47;45.94;98841.31;6236254;23;20008;-95
2023/07/27 11:01:49;;;;;;;2.45;1.20;;;;;;;22.82;42.53;98789.06;6379842;22;20025;-95
2023/07/27 11:04:22;;;;;;;1.58;1.23;;;;;;;22.84;42.49;98769.50;6307412;22;20010;-95
2023/07/27 11:06:58;;;;;;;2.42;1.20;;;;;;;22.90;42.47;98777.06;6333415;22;20017;-88
2023/07/27 11:09:27;;;;;;;1.58;1.20;;;;;;;23.15;42.12;98754.75;6307875;22;20002;-94
2023/07/27 11:12:08;;;;;;;18.05;9.35;;;;;;;23.40;41.48;98761.41;6266856;22;20357;-96
2023/07/27 11:14:36;;;;;;;9.32;4.88;;;;;;;23.45;41.73;98754.03;6236285;23;20039;-94
2023/07/27 11:17:23;;;;;;;2.17;1.35;;;;;;;23.66;41.18;98748.84;6184558;23;20034;-96
2023/07/27 11:19:55;;;;;;;6.35;3.10;;;;;;;23.69;40.90;98748.09;6238035;23;20055;-95
2023/07/27 11:29:18;;;;;;;9.13;3.28;;;;;;;24.36;41.19;98736.41;6116023;22;20751;-94
2023/07/27 11:32:00;;;;;;;2.67;1.50;;;;;;;24.65;39.16;98746.91;6319489;22;20019;-87
2023/07/27 11:34:28;;;;;;;5.20;1.60;;;;;;;24.58;39.47;98751.19;6295760;22;20237;-88
2023/07/27 11:36:55;;;;;;;3.05;1.30;;;;;;;24.74;38.48;98748.19;6270062;22;19995;-90
2023/07/27 11:40:07;;;;;;;1.90;1.48;;;;;;;25.09;38.50;98773.69;6319228;22;20317;-89
2023/07/27 11:42:36;;;;;;;4.13;2.50;;;;;;;25.10;38.98;98754.03;6295293;22;20045;-89
2023/07/27 11:45:50;;;;;;;;;;;;;;;;;;;;;
2023/07/27 11:48:19;;;;;;;1.50;1.10;;;;;;;24.99;37.00;98734.66;6347026;22;20497;-88
2023/07/27 11:53:34;;;;;;;6.95;1.70;;;;;;;25.07;37.51;98720.91;6300809;22;20019;-96
2023/07/27 11:56:38;;;;;;;1.55;1.30;;;;;;;25.24;36.16;98747.88;6215325;22;20091;-95
2023/07/27 11:59:35;;;;;;;3.78;1.27;;;;;;;25.40;35.71;98751.13;6115738;23;20088;-94
2023/07/27 12:02:06;;;;;;;2.67;1.45;;;;;;;25.53;36.34;98748.06;6118784;23;20001;-91
2023/07/27 12:04:34;;;;;;;3.85;1.30;;;;;;;25.69;34.23;98729.25;6179527;22;20007;-93
2023/07/27 12:07:03;;;;;;;2.80;1.17;;;;;;;25.63;35.55;98727.22;6209192;22;19996;-93
2023/07/27 12:09:39;;;;;;;2.33;1.30;;;;;;;25.59;33.11;98732.75;6236041;22;20010;-94
2023/07/27 12:12:08;;;;;;;1.70;1.30;;;;;;;25.85;33.24;98744.69;6233264;22;20035;-87
2023/07/27 12:14:37;;;;;;;4.15;1.38;;;;;;;25.90;32.50;98747.91;6206501;22;19999;-87
2023/07/27 12:17:09;;;;;;;6.15;1.58;;;;;;;25.78;32.52;98724.16;6205045;22;19996;-88
2023/07/27 12:19:37;;;;;;;2.38;1.40;;;;;;;25.94;33.04;98732.16;6204163;22;20011;-86
2023/07/27 12:30:12;;;;;;;2.00;1.60;;;;;;;25.94;31.72;98718.38;6306389;22;20019;-86
2023/07/27 12:35:54;;;;;;;8.32;1.90;;;;;;;25.87;33.52;98723.81;6344895;22;20006;-96
2023/07/27 12:38:40;;;;;;;3.33;1.88;;;;;;;25.86;32.66;98738.78;6328153;22;20019;-96
2023/07/27 12:41:13;;;;;;;3.22;1.95;;;;;;;26.06;31.96;98730.22;6249274;22;20004;-96
2023/07/27 12:43:43;;;;;;;2.80;1.60;;;;;;;25.90;31.90;98725.84;6276993;22;19995;-96
2023/07/27 12:46:30;;;;;;;2.80;1.85;;;;;;;25.59;32.21;98725.25;6247993;22;20012;-96
2023/07/27 12:48:56;;;;;;;2.70;1.40;;;;;;;25.76;32.20;98739.53;6284157;22;20006;-86
2023/07/27 12:51:24;;;;;;;3.85;1.70;;;;;;;25.94;31.94;98728.59;6329611;22;20081;-86
2023/07/27 12:53:53;;;;;;;3.30;1.45;;;;;;;26.26;32.70;98738.97;6315627;22;20068;-96
2023/07/27 12:56:28;;;;;;;8.38;1.88;;;;;;;26.44;30.93;98733.50;6304733;22;20010;-86
2023/07/27 12:58:54;;;;;;;6.53;1.52;;;;;;;26.59;29.76;98735.16;6304938;22;20493;-89
2023/07/27 13:01:20;;;;;;;3.45;1.70;;;;;;;26.45;30.45;98737.84;6300926;22;20099;-87
2023/07/27 13:03:48;;;;;;;5.60;2.13;;;;;;;26.16;31.20;98735.00;6325689;22;19999;-86
2023/07/27 13:06:15;;;;;;;3.22;1.52;;;;;;;26.24;30.20;98750.41;6327852;22;20059;-91
2023/07/27 13:08:41;;;;;;;3.60;1.38;;;;;;;26.11;28.99;98741.69;6297338;22;19995;-86
2023/07/27 13:11:09;;;;;;;10.63;1.30;;;;;;;25.89;28.75;98749.06;6325444;22;20005;-87
2023/07/27 13:13:35;;;;;;;2.20;1.25;;;;;;;25.82;29.55;98738.00;6295266;22;19998;-85
2023/07/27 13:16:00;;;;;;;3.55;1.25;;;;;;;25.98;29.40;98768.03;6292476;22;19990;-86
2023/07/27 13:18:26;;;;;;;2.38;1.30;;;;;;;25.73;28.71;98743.84;6292134;22;19994;-86